Time;durP1;ratioP1;P1;durP2;ratioP2;P2;SDS_P1;SDS_P2;PMS_P1;PMS_P2;Temp;Humidity;BMP_temperature;BMP_pressure;BME280_temperature;BME280_humidity;BME280_pressure;Samples;Min_cycle;Max_cycle;Signal;HPM_P1;HPM_P2
2021/12/28 00:01:50;;;;;;;;;;;5.90;99.90;;;;;;5051154;28;19916;-64
2021/12/28 00:04:15;;;;;;;;;;;4.50;99.90;;;;;;5051481;28;19928;-65
2021/12/28 00:06:41;;;;;;;;;;;6.40;99.90;;;;;;5051640;28;19951;-64
2021/12/28 00:09:08;;;;;;;;;;;7.10;99.90;;;;;;5050843;28;20271;-64
2021/12/28 00:11:33;;;;;;;;;;;5.20;99.90;;;;;;5051498;28;19939;-64
2021/12/28 00:14:01;;;;;;;;;;;5.80;99.90;;;;;;5051572;28;20370;-64
2021/12/28 00:16:34;;;;;;;;;;;;;;;;;;5050913;28;19905;-64
2021/12/28 00:19:00;;;;;;;;;;;6.10;99.90;;;;;;5050990;28;20320;-64
2021/12/28 00:21:26;;;;;;;;;;;;;;;;;;5051789;28;20492;-64
2021/12/28 00:23:52;;;;;;;;;;;6.20;99.90;;;;;;5051634;28;19995;-64
2021/12/28 00:26:18;;;;;;;;;;;5.70;99.90;;;;;;5051328;28;20382;-64
2021/12/28 00:28:44;;;;;;;;;;;6.20;99.90;;;;;;5051022;28;20023;-64
2021/12/28 00:31:11;;;;;;;;;;;7.20;99.90;;;;;;5050857;28;19943;-64
2021/12/28 00:33:36;;;;;;;;;;;7.30;99.90;;;;;;5051057;28;19908;-64
2021/12/28 00:36:02;;;;;;;;;;;6.30;99.90;;;;;;5051311;28;19916;-64
2021/12/28 00:38:28;;;;;;;;;;;7.90;99.90;;;;;;5051048;28;19911;-64
2021/12/28 00:40:55;;;;;;;;;;;7.40;99.90;;;;;;5054082;28;19947;-64
2021/12/28 00:43:20;;;;;;;;;;;6.70;99.90;;;;;;5054853;28;19904;-64
2021/12/28 00:45:47;;;;;;;;;;;7.10;99.90;;;;;;5054597;28;19916;-64
2021/12/28 00:48:14;;;;;;;;;;;6.40;99.90;;;;;;5053390;28;20098;-64
2021/12/28 00:50:40;;;;;;;;;;;6.70;99.90;;;;;;5054270;28;20374;-63
2021/12/28 00:53:06;;;;;;;;;;;6.70;99.90;;;;;;5054552;28;19987;-66
2021/12/28 00:55:31;;;;;;;;;;;6.80;99.90;;;;;;5036869;28;20003;-65
2021/12/28 00:57:57;;;;;;;;;;;5.80;99.90;;;;;;5054553;28;19905;-65
2021/12/28 01:00:27;;;;;;;;;;;6.00;99.90;;;;;;5053963;28;19916;-68
2021/12/28 01:02:54;;;;;;;;;;;5.30;99.90;;;;;;5054492;28;20329;-66
2021/12/28 01:05:20;;;;;;;;;;;6.60;99.90;;;;;;5054542;28;19932;-66
2021/12/28 01:07:45;;;;;;;;;;;6.50;99.90;;;;;;5054550;28;19919;-65
2021/12/28 01:10:13;;;;;;;;;;;5.00;99.90;;;;;;5053731;28;19905;-66
2021/12/28 01:12:38;;;;;;;;;;;5.70;99.90;;;;;;5053967;28;19912;-66
2021/12/28 01:15:06;;;;;;;;;;;;;;;;;;5053815;28;20256;-64
2021/12/28 01:17:32;;;;;;;;;;;;;;;;;;5053725;28;19904;-63
2021/12/28 01:19:57;;;;;;;;;;;5.90;99.90;;;;;;5053560;28;20378;-63
2021/12/28 01:22:23;;;;;;;;;;;6.50;99.90;;;;;;5054045;28;19913;-63
2021/12/28 01:24:48;;;;;;;;;;;6.10;99.90;;;;;;5054210;28;20005;-63
2021/12/28 01:27:14;;;;;;;;;;;;;;;;;;5053927;28;19920;-63
2021/12/28 01:29:40;;;;;;;;;;;;;;;;;;5053435;28;19915;-63
2021/12/28 01:32:08;;;;;;;;;;;5.70;99.90;;;;;;5053691;28;19908;-63
2021/12/28 01:34:34;;;;;;;;;;;6.30;99.90;;;;;;5053880;28;19909;-63
2021/12/28 01:36:59;;;;;;;;;;;4.80;99.90;;;;;;5053848;28;19939;-63
2021/12/28 01:39:25;;;;;;;;;;;4.90;99.90;;;;;;5053245;28;19956;-62
2021/12/28 01:41:50;;;;;;;;;;;5.90;99.90;;;;;;5053416;28;19908;-63
2021/12/28 01:44:16;;;;;;;;;;;5.80;99.90;;;;;;5057125;28;19909;-63
2021/12/28 01:46:41;;;;;;;;;;;6.00;99.90;;;;;;5060792;28;19951;-63
2021/12/28 01:49:08;;;;;;;;;;;6.20;99.90;;;;;;5049739;28;20000;-62
2021/12/28 01:51:33;;;;;;;;;;;5.70;99.90;;;;;;5053621;28;19916;-62
2021/12/28 01:54:00;;;;;;;;;;;5.70;99.90;;;;;;5053556;28;19909;-62
2021/12/28 01:56:40;;;;;;;;;;;5.80;99.90;;;;;;5053228;28;19905;-62
2021/12/28 01:59:06;;;;;;;;;;;6.00;99.90;;;;;;5053067;28;19905;-62
2021/12/28 02:01:32;;;;;;;;;;;4.90;99.90;;;;;;5053491;28;19909;-62
2021/12/28 02:03:58;;;;;;;;;;;4.30;99.90;;;;;;5053092;28;19913;-63
2021/12/28 02:06:25;;;;;;;;;;;5.00;99.90;;;;;;5053186;28;19916;-62
2021/12/28 02:08:51;;;;;;;;;;;6.90;99.90;;;;;;5052892;28;20594;-61
2021/12/28 02:11:17;;;;;;;;;;;5.30;99.90;;;;;;5052785;28;20355;-63
2021/12/28 02:13:42;;;;;;;;;;;5.70;99.90;;;;;;5053256;28;19943;-63
2021/12/28 02:16:08;;;;;;;;;;;5.10;99.90;;;;;;5053292;28;19915;-62
2021/12/28 02:18:34;;;;;;;;;;;5.30;99.90;;;;;;5052651;28;20011;-64
2021/12/28 02:21:01;;;;;;;;;;;5.50;99.90;;;;;;5052401;28;20341;-64
2021/12/28 02:23:27;;;;;;;;;;;5.40;99.90;;;;;;5052942;28;19905;-64
2021/12/28 02:25:53;;;;;;;;;;;;;;;;;;5052805;28;19916;-64
2021/12/28 02:28:19;;;;;;;;;;;5.30;99.90;;;;;;5052660;28;19919;-64
2021/12/28 02:30:45;;;;;;;;;;;5.00;99.90;;;;;;5052740;28;20393;-64
2021/12/28 02:33:11;;;;;;;;;;;5.20;99.90;;;;;;5052453;28;19915;-63
2021/12/28 02:35:37;;;;;;;;;;;5.40;99.90;;;;;;5052779;28;19909;-64
2021/12/28 02:38:04;;;;;;;;;;;5.20;99.90;;;;;;5052311;28;19905;-64
2021/12/28 02:40:30;;;;;;;;;;;6.50;99.90;;;;;;5052506;28;20331;-64
2021/12/28 02:42:57;;;;;;;;;;;4.60;99.90;;;;;;5052570;28;19905;-64
2021/12/28 02:45:27;;;;;;;;;;;4.40;99.90;;;;;;5052759;28;19992;-64
2021/12/28 02:47:53;;;;;;;;;;;4.70;99.90;;;;;;5052268;28;19905;-63
2021/12/28 02:50:20;;;;;;;;;;;6.60;99.90;;;;;;5051980;28;19905;-63
2021/12/28 02:52:46;;;;;;;;;;;4.70;99.90;;;;;;5052268;28;19913;-63
2021/12/28 02:55:14;;;;;;;;;;;5.40;99.90;;;;;;5052337;28;19912;-63
2021/12/28 02:57:50;;;;;;;;;;;4.60;99.90;;;;;;5052410;28;20354;-63
2021/12/28 03:00:29;;;;;;;;;;;6.20;99.90;;;;;;5051698;28;19904;-63
2021/12/28 03:02:55;;;;;;;;;;;6.10;99.90;;;;;;5051187;28;20433;-63
2021/12/28 03:05:21;;;;;;;;;;;5.60;99.90;;;;;;5052080;28;19913;-63
2021/12/28 03:07:46;;;;;;;;;;;5.20;99.90;;;;;;5052164;28;19916;-63
2021/12/28 03:10:12;;;;;;;;;;;6.80;99.90;;;;;;5051596;28;19909;-63
2021/12/28 03:12:37;;;;;;;;;;;5.10;99.90;;;;;;5052132;28;20004;-62
2021/12/28 03:15:03;;;;;;;;;;;4.70;99.90;;;;;;5052015;28;19943;-63
2021/12/28 03:17:28;;;;;;;;;;;5.50;99.90;;;;;;5051859;28;19927;-63
2021/12/28 03:19:54;;;;;;;;;;;5.10;99.90;;;;;;5051238;28;19968;-62
2021/12/28 03:22:19;;;;;;;;;;;5.50;99.90;;;;;;5052001;28;19905;-62
2021/12/28 03:24:45;;;;;;;;;;;6.10;99.90;;;;;;5051983;28;19916;-62
2021/12/28 03:27:10;;;;;;;;;;;6.50;99.90;;;;;;5051578;28;19909;-62
2021/12/28 03:29:36;;;;;;;;;;;5.40;99.90;;;;;;5051525;28;19955;-63
2021/12/28 03:32:02;;;;;;;;;;;5.50;99.90;;;;;;5051826;28;19908;-63
2021/12/28 03:34:27;;;;;;;;;;;6.30;99.90;;;;;;5051884;28;20286;-62
2021/12/28 03:36:53;;;;;;;;;;;5.50;99.90;;;;;;5051886;28;19909;-62
2021/12/28 03:39:18;;;;;;;;;;;6.30;99.90;;;;;;5051179;28;19978;-63
2021/12/28 03:41:44;;;;;;;;;;;5.40;99.90;;;;;;5051902;28;19966;-62
2021/12/28 03:44:09;;;;;;;;;;;5.50;99.90;;;;;;5051912;28;19972;-64
2021/12/28 03:46:35;;;;;;;;;;;6.50;99.90;;;;;;5051739;28;19915;-64
2021/12/28 03:49:00;;;;;;;;;;;6.00;99.90;;;;;;5051461;28;20381;-63
2021/12/28 03:51:26;;;;;;;;;;;5.40;99.90;;;;;;5051104;28;19909;-63
2021/12/28 03:53:52;;;;;;;;;;;;;;;;;;5051870;28;20381;-63
2021/12/28 03:56:18;;;;;;;;;;;6.60;99.90;;;;;;5051819;28;20039;-64
2021/12/28 03:58:44;;;;;;;;;;;6.30;99.90;;;;;;5051540;28;19923;-65
2021/12/28 04:01:11;;;;;;;;;;;6.80;99.90;;;;;;5051979;28;19905;-64
2021/12/28 04:03:37;;;;;;;;;;;7.10;99.90;;;;;;5050953;22;20002;-63
2021/12/28 04:06:07;;;;;;;;;;;6.10;99.90;;;;;;5023713;28;19937;-63
2021/12/28 04:08:33;;;;;;;;;;;5.90;99.90;;;;;;5031607;28;20000;-63
2021/12/28 04:11:14;;;;;;;;;;;8.20;99.90;;;;;;5031429;28;19952;-61
2021/12/28 04:13:40;;;;;;;;;;;;;;;;;;5033195;28;19913;-63
2021/12/28 04:16:06;;;;;;;;;;;;;;;;;;5034864;28;20280;-63
2021/12/28 04:18:31;;;;;;;;;;;5.70;99.90;;;;;;5004212;28;19905;-64
2021/12/28 04:20:57;;;;;;;;;;;6.10;99.90;;;;;;5015498;28;19914;-64
2021/12/28 04:23:22;;;;;;;;;;;6.70;99.90;;;;;;5015538;28;20462;-63
2021/12/28 04:25:48;;;;;;;;;;;6.40;99.90;;;;;;5015737;28;19928;-64
2021/12/28 04:28:13;;;;;;;;;;;6.20;99.90;;;;;;5015557;28;19989;-64
2021/12/28 04:30:39;;;;;;;;;;;6.50;99.90;;;;;;5015422;28;19910;-63
2021/12/28 04:33:05;;;;;;;;;;;7.20;99.90;;;;;;5015445;28;19917;-64
2021/12/28 04:35:31;;;;;;;;;;;5.40;99.90;;;;;;5015674;28;19909;-62
2021/12/28 04:37:57;;;;;;;;;;;;;;;;;;5015537;28;19905;-65
2021/12/28 04:40:23;;;;;;;;;;;;;;;;;;5015074;28;19911;-64
2021/12/28 04:42:48;;;;;;;;;;;;;;;;;;5015478;28;19911;-63
2021/12/28 04:45:15;;;;;;;;;;;5.80;99.90;;;;;;5015071;28;19912;-64
2021/12/28 04:47:41;;;;;;;;;;;5.90;99.90;;;;;;5015144;28;19916;-63
2021/12/28 04:50:09;;;;;;;;;;;5.70;99.90;;;;;;5014673;28;19913;-64
2021/12/28 04:52:37;;;;;;;;;;;7.40;99.90;;;;;;5015321;28;19944;-64
2021/12/28 04:55:09;;;;;;;;;;;6.60;99.90;;;;;;5015241;28;19905;-64
2021/12/28 04:57:35;;;;;;;;;;;;;;;;;;5015273;28;19959;-64
2021/12/28 05:00:01;;;;;;;;;;;6.60;99.90;;;;;;5014825;28;19909;-64
2021/12/28 05:02:27;;;;;;;;;;;;;;;;;;5014044;28;20291;-64
2021/12/28 05:04:53;;;;;;;;;;;;;;;;;;5014973;28;19905;-63
2021/12/28 05:07:19;;;;;;;;;;;8.50;99.90;;;;;;5015124;28;19902;-64
2021/12/28 05:09:44;;;;;;;;;;;5.50;99.90;;;;;;5002777;28;19914;-64
2021/12/28 05:12:10;;;;;;;;;;;6.30;99.90;;;;;;4994934;28;20000;-64
2021/12/28 05:14:39;;;;;;;;;;;6.20;99.90;;;;;;4995217;28;19956;-63
2021/12/28 05:17:05;;;;;;;;;;;;;;;;;;4995345;28;19918;-62
2021/12/28 05:19:31;;;;;;;;;;;;;;;;;;5010804;28;20009;-63
2021/12/28 05:21:57;;;;;;;;;;;7.30;99.90;;;;;;5014659;28;20279;-63
2021/12/28 05:24:22;;;;;;;;;;;6.90;99.90;;;;;;5015366;28;19956;-63
2021/12/28 05:26:49;;;;;;;;;;;;;;;;;;5014279;28;19940;-63
2021/12/28 05:29:15;;;;;;;;;;;7.00;99.90;;;;;;5019319;28;20026;-64
2021/12/28 05:31:40;;;;;;;;;;;6.50;99.90;;;;;;5021328;28;19910;-62
2021/12/28 05:34:07;;;;;;;;;;;6.70;99.90;;;;;;5014366;28;19921;-63
2021/12/28 05:36:33;;;;;;;;;;;7.40;99.90;;;;;;5014381;28;20367;-63
2021/12/28 05:38:58;;;;;;;;;;;6.20;99.90;;;;;;5013797;28;19996;-64
2021/12/28 05:41:24;;;;;;;;;;;5.10;99.90;;;;;;5005780;28;19920;-64
2021/12/28 05:43:49;;;;;;;;;;;6.20;99.90;;;;;;4994715;28;20265;-64
2021/12/28 05:46:15;;;;;;;;;;;5.90;99.90;;;;;;4994403;28;19917;-64
2021/12/28 05:48:40;;;;;;;;;;;6.20;99.90;;;;;;5003774;28;19914;-63
2021/12/28 05:51:06;;;;;;;;;;;6.10;99.90;;;;;;5013435;28;19960;-62
2021/12/28 05:53:32;;;;;;;;;;;7.10;99.90;;;;;;4996075;28;19996;-63
2021/12/28 05:55:57;;;;;;;;;;;7.70;99.90;;;;;;5013626;28;19910;-64
2021/12/28 05:58:23;;;;;;;;;;;6.30;99.90;;;;;;5013649;28;20540;-64
2021/12/28 06:00:48;;;;;;;;;;;7.70;99.90;;;;;;5013812;28;19909;-64
2021/12/28 06:03:14;;;;;;;;;;;6.70;99.90;;;;;;5013588;28;19948;-63
2021/12/28 06:05:40;;;;;;;;;;;7.30;99.90;;;;;;5013846;28;20450;-64
2021/12/28 06:08:06;;;;;;;;;;;7.10;99.90;;;;;;5013436;28;20367;-62
2021/12/28 06:10:31;;;;;;;;;;;7.10;99.90;;;;;;5013202;28;19913;-64
2021/12/28 06:12:57;;;;;;;;;;;6.90;99.90;;;;;;5013644;28;19920;-63
2021/12/28 06:15:22;;;;;;;;;;;7.60;99.90;;;;;;4995210;28;19910;-64
2021/12/28 06:17:48;;;;;;;;;;;7.80;99.90;;;;;;4996412;28;19913;-64
2021/12/28 06:20:14;;;;;;;;;;;7.90;99.90;;;;;;5012764;28;20048;-64
2021/12/28 06:22:39;;;;;;;;;;;7.80;99.90;;;;;;5013533;28;19956;-64
2021/12/28 06:25:07;;;;;;;;;;;7.90;99.90;;;;;;5013354;28;19909;-63
2021/12/28 06:27:32;;;;;;;;;;;8.30;99.90;;;;;;5013398;28;20027;-64
2021/12/28 06:29:58;;;;;;;;;;;7.70;99.90;;;;;;5012754;28;19952;-63
2021/12/28 06:32:24;;;;;;;;;;;;;;;;;;5013432;28;20411;-63
2021/12/28 06:34:49;;;;;;;;;;;8.40;99.90;;;;;;5013295;28;19905;-64
2021/12/28 06:37:15;;;;;;;;;;;7.30;99.90;;;;;;5012423;28;20378;-64
2021/12/28 06:39:40;;;;;;;;;;;7.80;99.90;;;;;;5012471;28;19956;-64
2021/12/28 06:42:06;;;;;;;;;;;9.20;99.90;;;;;;5013113;28;19917;-64
2021/12/28 06:44:32;;;;;;;;;;;8.50;99.90;;;;;;5012866;28;20019;-63
2021/12/28 06:46:57;;;;;;;;;;;8.70;99.90;;;;;;5013131;28;19905;-64
2021/12/28 06:49:23;;;;;;;;;;;8.80;99.90;;;;;;5012037;28;19957;-63
2021/12/28 06:51:48;;;;;;;;;;;8.60;99.90;;;;;;5012975;28;20393;-65
2021/12/28 06:54:14;;;;;;;;;;;8.10;99.90;;;;;;5013169;28;20000;-63
2021/12/28 06:56:40;;;;;;;;;;;9.10;99.90;;;;;;5002524;28;19913;-70
2021/12/28 06:59:05;;;;;;;;;;;10.00;99.90;;;;;;5011049;28;19996;-70
2021/12/28 07:01:31;;;;;;;;;;;9.00;99.90;;;;;;5006866;28;19966;-70
2021/12/28 07:03:56;;;;;;;;;;;9.10;99.90;;;;;;5025914;28;19924;-71
2021/12/28 07:06:24;;;;;;;;;;;9.20;99.90;;;;;;5019384;28;19913;-70
2021/12/28 07:08:49;;;;;;;;;;;8.80;99.90;;;;;;5012968;28;19913;-71
2021/12/28 07:11:15;;;;;;;;;;;8.20;99.90;;;;;;5014645;28;19913;-72
2021/12/28 07:13:41;;;;;;;;;;;9.90;99.90;;;;;;5015327;28;19905;-72
2021/12/28 07:16:06;;;;;;;;;;;9.10;99.90;;;;;;5012827;28;20311;-70
2021/12/28 07:18:32;;;;;;;;;;;8.30;99.90;;;;;;5011974;28;20331;-70
2021/12/28 07:20:58;;;;;;;;;;;8.10;99.90;;;;;;5012525;28;19905;-70
2021/12/28 07:23:24;;;;;;;;;;;9.40;99.90;;;;;;5013740;28;19932;-70
2021/12/28 07:25:53;;;;;;;;;;;;;;;;;;5013842;28;20575;-70
2021/12/28 07:28:19;;;;;;;;;;;9.00;99.90;;;;;;5013136;28;20367;-70
2021/12/28 07:30:44;;;;;;;;;;;9.10;99.90;;;;;;5012176;28;19909;-70
2021/12/28 07:33:10;;;;;;;;;;;9.40;99.90;;;;;;4984091;28;20008;-72
2021/12/28 07:35:35;;;;;;;;;;;9.10;99.90;;;;;;4992639;28;20076;-73
2021/12/28 07:38:01;;;;;;;;;;;9.40;99.90;;;;;;4992169;28;20001;-74
2021/12/28 07:40:26;;;;;;;;;;;8.40;99.90;;;;;;4992002;28;19963;-73
2021/12/28 07:42:52;;;;;;;;;;;9.30;99.90;;;;;;4992637;28;19920;-72
2021/12/28 07:45:18;;;;;;;;;;;9.20;99.90;;;;;;4991414;28;19941;-74
2021/12/28 07:47:43;;;;;;;;;;;10.00;99.90;;;;;;4994375;28;19917;-71
2021/12/28 07:50:11;;;;;;;;;;;9.30;99.90;;;;;;5015142;28;19909;-74
2021/12/28 07:52:37;;;;;;;;;;;10.30;99.90;;;;;;5011504;28;19999;-76
2021/12/28 07:55:04;;;;;;;;;;;8.80;99.90;;;;;;5036113;28;20783;-73
2021/12/28 07:57:30;;;;;;;;;;;9.10;99.90;;;;;;5036159;28;20276;-74
2021/12/28 07:59:56;;;;;;;;;;;9.80;99.90;;;;;;5034998;28;19998;-75
2021/12/28 08:02:22;;;;;;;;;;;9.70;99.90;;;;;;5003463;28;19941;-74
2021/12/28 08:04:47;;;;;;;;;;;9.60;99.90;;;;;;5015817;28;20671;-74
2021/12/28 08:07:13;;;;;;;;;;;10.10;99.90;;;;;;5016041;28;19910;-74
2021/12/28 08:09:38;;;;;;;;;;;9.60;99.90;;;;;;5014951;28;19913;-75
2021/12/28 08:12:04;;;;;;;;;;;9.00;99.90;;;;;;5015948;28;19924;-74
2021/12/28 08:14:30;;;;;;;;;;;9.50;99.90;;;;;;5015867;28;19951;-74
2021/12/28 08:16:56;;;;;;;;;;;;;;;;;;5015757;28;19917;-69
2021/12/28 08:19:21;;;;;;;;;;;10.90;99.90;;;;;;5014660;28;20601;-71
2021/12/28 08:21:47;;;;;;;;;;;;;;;;;;5015555;28;19910;-70
2021/12/28 08:24:13;;;;;;;;;;;;;;;;;;5015642;28;19909;-71
2021/12/28 08:26:39;;;;;;;;;;;11.10;99.90;;;;;;5015465;28;20007;-71
2021/12/28 08:29:04;;;;;;;;;;;9.10;99.90;;;;;;5013601;28;19913;-70
2021/12/28 08:31:30;;;;;;;;;;;9.50;99.90;;;;;;5015535;28;19932;-70
2021/12/28 08:33:56;;;;;;;;;;;;;;;;;;5015294;28;19928;-74
2021/12/28 08:36:21;;;;;;;;;;;10.60;99.90;;;;;;5015086;28;19905;-70
2021/12/28 08:38:47;;;;;;;;;;;9.60;99.90;;;;;;5014980;28;19917;-71
2021/12/28 08:41:12;;;;;;;;;;;9.90;99.90;;;;;;4997328;28;19905;-71
2021/12/28 08:43:38;;;;;;;;;;;10.10;99.90;;;;;;4997726;28;20375;-73
2021/12/28 08:46:04;;;;;;;;;;;10.10;99.90;;;;;;5015369;28;19906;-72
2021/12/28 08:48:29;;;;;;;;;;;11.00;99.90;;;;;;5014680;28;19967;-70
2021/12/28 08:50:55;;;;;;;;;;;;;;;;;;5014657;28;20328;-72
2021/12/28 08:53:21;;;;;;;;;;;9.90;99.90;;;;;;5034300;28;19975;-72
2021/12/28 08:55:47;;;;;;;;;;;11.30;99.90;;;;;;5035800;28;19909;-72
2021/12/28 08:58:15;;;;;;;;;;;9.80;99.90;;;;;;5034826;28;19908;-72
2021/12/28 09:00:41;;;;;;;;;;;;;;;;;;5033049;28;19913;-74
2021/12/28 09:03:07;;;;;;;;;;;9.60;99.90;;;;;;5034436;28;19966;-73
2021/12/28 09:05:32;;;;;;;;;;;;;;;;;;5034713;28;20425;-71
2021/12/28 09:07:59;;;;;;;;;;;;;;;;;;5034717;28;20614;-71
2021/12/28 09:10:25;;;;;;;;;;;11.40;99.90;;;;;;5016290;28;19909;-71
2021/12/28 09:12:51;;;;;;;;;;;11.40;99.90;;;;;;5034544;28;19913;-71
2021/12/28 09:15:17;;;;;;;;;;;9.90;99.90;;;;;;4996637;28;19912;-70
2021/12/28 09:17:42;;;;;;;;;;;11.50;99.90;;;;;;4997919;28;20289;-70
2021/12/28 09:20:10;;;;;;;;;;;10.50;99.90;;;;;;5010031;28;19909;-70
2021/12/28 09:22:36;;;;;;;;;;;11.80;99.90;;;;;;5009171;28;19911;-70
2021/12/28 09:25:02;;;;;;;;;;;10.90;99.90;;;;;;4995097;28;19992;-70
2021/12/28 09:27:28;;;;;;;;;;;11.20;99.90;;;;;;4995244;28;19906;-71
2021/12/28 09:29:53;;;;;;;;;;;10.30;99.90;;;;;;4994603;28;19916;-70
2021/12/28 09:32:20;;;;;;;;;;;11.30;99.90;;;;;;4995060;28;20434;-71
2021/12/28 09:34:46;;;;;;;;;;;;;;;;;;5000319;28;20000;-71
2021/12/28 09:37:11;;;;;;;;;;;9.90;99.90;;;;;;5007610;28;19956;-70
2021/12/28 09:39:37;;;;;;;;;;;11.60;99.90;;;;;;5013709;28;19932;-71
2021/12/28 09:42:03;;;;;;;;;;;12.10;99.90;;;;;;5014354;28;19909;-71
2021/12/28 09:44:29;;;;;;;;;;;11.30;99.90;;;;;;5014119;28;19909;-71
2021/12/28 09:46:55;;;;;;;;;;;11.70;99.90;;;;;;5014320;28;20016;-71
2021/12/28 09:49:20;;;;;;;;;;;10.90;99.90;;;;;;5013067;28;19948;-70
2021/12/28 09:51:46;;;;;;;;;;;;;;;;;;5020269;28;19917;-71
2021/12/28 09:54:12;;;;;;;;;;;;;;;;;;5034116;28;19911;-72
2021/12/28 09:56:38;;;;;;;;;;;11.10;99.90;;;;;;5033139;28;20338;-73
2021/12/28 09:59:04;;;;;;;;;;;10.50;99.90;;;;;;5013032;28;19921;-67
2021/12/28 10:01:30;;;;;;;;;;;11.10;99.90;;;;;;5013680;28;19913;-66
2021/12/28 10:03:57;;;;;;;;;;;10.40;99.90;;;;;;5012370;22;19901;-64
2021/12/28 10:06:25;;;;;;;;;;;11.40;99.90;;;;;;5047947;28;20029;-64
2021/12/28 10:09:08;;;;;;;;;;;12.50;99.90;;;;;;5050668;28;20383;-64
2021/12/28 10:11:38;;;;;;;;;;;11.90;99.90;;;;;;5035410;28;19912;-65
2021/12/28 10:14:24;;;;;;;;;;;13.30;99.90;;;;;;5053395;28;20343;-64
2021/12/28 10:16:52;;;;;;;;;;;12.60;99.90;;;;;;5052882;28;19908;-65
2021/12/28 10:19:36;;;;;;;;;;;13.10;99.90;;;;;;5052632;28;20278;-64
2021/12/28 10:22:20;;;;;;;;;;;11.50;99.90;;;;;;5053135;28;19999;-65
2021/12/28 10:24:46;;;;;;;;;;;10.80;99.90;;;;;;5052763;28;19905;-64
2021/12/28 10:27:15;;;;;;;;;;;11.60;99.90;;;;;;5053272;28;19905;-65
2021/12/28 10:29:42;;;;;;;;;;;10.60;99.90;;;;;;5052123;28;19912;-65
2021/12/28 10:32:20;;;;;;;;;;;11.90;99.90;;;;;;5052837;28;19913;-65
2021/12/28 10:34:46;;;;;;;;;;;12.20;99.90;;;;;;5037666;28;20008;-69
2021/12/28 10:37:13;;;;;;;;;;;12.90;99.90;;;;;;5032041;28;19913;-69
2021/12/28 10:39:46;;;;;;;;;;;13.40;99.90;;;;;;5032300;28;19916;-69
2021/12/28 10:42:31;;;;;;;;;;;14.70;99.90;;;;;;5033001;28;19932;-69
2021/12/28 10:44:58;;;;;;;;;;;15.00;99.90;;;;;;5032557;28;19912;-70
2021/12/28 10:47:24;;;;;;;;;;;;;;;;;;5029508;28;20311;-70
2021/12/28 10:49:49;;;;;;;;;;;14.30;99.90;;;;;;5024505;28;20120;-69
2021/12/28 10:52:23;;;;;;;;;;;15.60;99.90;;;;;;5025414;28;20635;-69
2021/12/28 10:54:48;;;;;;;;;;;14.70;99.90;;;;;;5027597;28;19909;-66
2021/12/28 10:57:14;;;;;;;;;;;16.70;99.90;;;;;;5031373;28;20339;-65
2021/12/28 10:59:40;;;;;;;;;;;;;;;;;;5030802;28;19905;-66
2021/12/28 11:02:06;;;;;;;;;;;15.70;99.90;;;;;;5031516;28;20010;-65
2021/12/28 11:04:32;;;;;;;;;;;;;;;;;;5035124;28;19952;-65
2021/12/28 11:06:58;;;;;;;;;;;;;;;;;;5033764;28;19912;-65
2021/12/28 11:09:25;;;;;;;;;;;13.40;99.90;;;;;;5031181;28;19905;-71
2021/12/28 11:11:54;;;;;;;;;;;14.30;99.90;;;;;;5024364;28;19917;-70
2021/12/28 11:14:21;;;;;;;;;;;14.50;99.90;;;;;;5031697;28;19919;-70
2021/12/28 11:16:55;;;;;;;;;;;13.90;99.90;;;;;;5032327;28;19905;-70
2021/12/28 11:19:28;;;;;;;;;;;13.70;99.90;;;;;;5031689;28;19913;-70
2021/12/28 11:21:55;;;;;;;;;;;13.50;99.90;;;;;;5032710;28;19979;-70
2021/12/28 11:24:21;;;;;;;;;;;12.60;99.90;;;;;;5031876;28;19917;-70
2021/12/28 11:26:49;;;;;;;;;;;12.80;99.90;;;;;;5025405;28;19911;-71
2021/12/28 11:29:19;;;;;;;;;;;13.70;99.90;;;;;;5031781;28;19909;-74
2021/12/28 11:31:52;;;;;;;;;;;13.50;99.90;;;;;;5023223;28;19913;-63
2021/12/28 11:34:22;;;;;;;;;;;13.50;99.90;;;;;;5026527;28;19904;-65
2021/12/28 11:36:53;;;;;;;;;;;14.40;99.90;;;;;;5031315;28;20327;-68
2021/12/28 11:39:26;;;;;;;;;;;13.50;99.90;;;;;;5024605;28;19928;-72
2021/12/28 11:41:53;;;;;;;;;;;14.20;99.90;;;;;;5007713;28;19908;-72
2021/12/28 11:44:19;;;;;;;;;;;14.50;99.90;;;;;;5024482;28;19931;-72
2021/12/28 11:46:45;;;;;;;;;;;15.60;99.90;;;;;;5020407;28;19905;-73
2021/12/28 11:49:14;;;;;;;;;;;14.30;99.90;;;;;;5011573;28;19909;-74
2021/12/28 11:51:39;;;;;;;;;;;15.60;99.90;;;;;;5012167;28;19914;-67
2021/12/28 11:54:07;;;;;;;;;;;13.80;99.90;;;;;;5012475;28;20378;-73
2021/12/28 11:56:34;;;;;;;;;;;15.40;99.90;;;;;;5012112;28;19912;-73
2021/12/28 11:59:05;;;;;;;;;;;13.70;99.90;;;;;;5016861;28;20000;-75
2021/12/28 12:01:46;;;;;;;;;;;13.80;99.90;;;;;;5030268;28;20046;-76
2021/12/28 12:04:27;;;;;;;;;;;13.80;99.90;;;;;;5029903;28;19909;-76
2021/12/28 12:06:58;;;;;;;;;;;11.80;99.90;;;;;;5028840;28;19932;-77
2021/12/28 12:09:27;;;;;;;;;;;15.00;99.90;;;;;;5030276;28;19912;-77
2021/12/28 12:12:08;;;;;;;;;;;12.30;99.90;;;;;;5042350;28;19913;-77
2021/12/28 12:14:52;;;;;;;;;;;13.70;99.90;;;;;;5031838;28;19999;-75
2021/12/28 12:17:29;;;;;;;;;;;12.80;99.90;;;;;;5024398;28;19905;-78
2021/12/28 12:19:55;;;;;;;;;;;;;;;;;;5019116;28;19909;-78
2021/12/28 12:22:29;;;;;;;;;;;12.90;99.90;;;;;;5031345;28;19913;-78
2021/12/28 12:24:55;;;;;;;;;;;11.80;99.90;;;;;;5030658;28;19912;-77
2021/12/28 12:27:41;;;;;;;;;;;11.90;99.90;;;;;;5030546;28;19913;-77
2021/12/28 12:30:27;;;;;;;;;;;12.90;99.90;;;;;;5023716;28;20464;-77
2021/12/28 12:32:53;;;;;;;;;;;13.40;99.90;;;;;;5012918;28;19913;-78
2021/12/28 12:35:27;;;;;;;;;;;13.00;99.90;;;;;;5033063;28;19963;-78
2021/12/28 12:37:53;;;;;;;;;;;;;;;;;;5032437;28;20409;-78
2021/12/28 12:40:19;;;;;;;;;;;;;;;;;;5033578;28;19908;-77
2021/12/28 12:42:45;;;;;;;;;;;;;;;;;;5038667;28;19952;-77
2021/12/28 12:45:12;;;;;;;;;;;12.00;99.90;;;;;;5034604;28;19916;-77
2021/12/28 12:47:38;;;;;;;;;;;13.60;99.90;;;;;;5041185;28;19909;-77
2021/12/28 12:50:08;;;;;;;;;;;13.80;99.90;;;;;;5039733;28;19917;-78
2021/12/28 12:52:34;;;;;;;;;;;11.70;99.90;;;;;;5035216;28;19916;-77
2021/12/28 12:55:01;;;;;;;;;;;;;;;;;;5034245;28;19905;-72
2021/12/28 12:57:29;;;;;;;;;;;11.70;99.90;;;;;;5035193;28;19913;-69
2021/12/28 13:00:12;;;;;;;;;;;11.40;99.90;;;;;;5034422;28;19909;-73
2021/12/28 13:02:38;;;;;;;;;;;12.70;99.90;;;;;;5034290;28;19939;-78
2021/12/28 13:05:04;;;;;;;;;;;;;;;;;;5033792;28;19932;-78
2021/12/28 13:07:31;;;;;;;;;;;13.30;99.90;;;;;;5033633;28;20252;-75
2021/12/28 13:10:03;;;;;;;;;;;13.60;99.90;;;;;;5032997;28;19916;-75
2021/12/28 13:12:29;;;;;;;;;;;13.90;99.90;;;;;;5034162;28;19915;-74
2021/12/28 13:14:55;;;;;;;;;;;12.50;99.90;;;;;;5033475;28;20015;-75
2021/12/28 13:17:23;;;;;;;;;;;13.30;99.90;;;;;;5033834;28;20454;-76
2021/12/28 13:19:55;;;;;;;;;;;13.40;99.90;;;;;;5033041;28;20379;-75
2021/12/28 13:22:20;;;;;;;;;;;13.30;99.90;;;;;;5034829;28;19916;-75
2021/12/28 13:24:46;;;;;;;;;;;12.70;99.90;;;;;;5015750;28;20519;-75
2021/12/28 13:27:18;;;;;;;;;;;12.00;99.90;;;;;;5033640;28;19917;-75
2021/12/28 13:29:43;;;;;;;;;;;11.70;99.90;;;;;;5033129;28;19905;-76
2021/12/28 13:32:11;;;;;;;;;;;11.50;99.90;;;;;;5033213;28;20330;-76
2021/12/28 13:34:55;;;;;;;;;;;12.60;99.90;;;;;;5033635;28;20028;-75
2021/12/28 13:37:28;;;;;;;;;;;13.40;99.90;;;;;;5033015;28;19935;-75
2021/12/28 13:39:57;;;;;;;;;;;13.20;99.90;;;;;;5032705;28;20278;-76
2021/12/28 13:42:23;;;;;;;;;;;11.80;99.90;;;;;;5036335;28;19944;-77
2021/12/28 13:44:48;;;;;;;;;;;11.80;99.90;;;;;;5039452;28;19920;-76
2021/12/28 13:47:14;;;;;;;;;;;11.60;99.90;;;;;;5051921;28;19909;-76
2021/12/28 13:49:39;;;;;;;;;;;12.00;99.90;;;;;;5052728;28;19909;-75
2021/12/28 13:52:05;;;;;;;;;;;13.30;99.90;;;;;;5064467;28;19900;-75
2021/12/28 13:54:30;;;;;;;;;;;13.10;99.90;;;;;;5052491;28;19913;-77
2021/12/28 13:56:57;;;;;;;;;;;11.50;99.90;;;;;;5052992;28;19909;-77
2021/12/28 13:59:22;;;;;;;;;;;11.70;99.90;;;;;;5052661;28;19916;-76
2021/12/28 14:01:48;;;;;;;;;;;12.70;99.90;;;;;;5051617;28;19952;-75
2021/12/28 14:04:18;;;;;;;;;;;12.80;99.90;;;;;;5055301;28;19940;-76
2021/12/28 14:06:55;;;;;;;;;;;11.80;99.90;;;;;;5059021;28;19909;-76
2021/12/28 14:09:25;;;;;;;;;;;12.10;99.90;;;;;;5051627;28;19913;-77
2021/12/28 14:11:53;;;;;;;;;;;11.80;99.90;;;;;;5041494;28;19945;-77
2021/12/28 14:14:26;;;;;;;;;;;11.70;99.90;;;;;;5033054;28;20317;-76
2021/12/28 14:16:51;;;;;;;;;;;11.00;99.90;;;;;;5032005;28;19909;-76
2021/12/28 14:19:17;;;;;;;;;;;12.00;99.90;;;;;;5031765;28;20326;-77
2021/12/28 14:21:46;;;;;;;;;;;11.70;99.90;;;;;;5033800;28;19905;-76
2021/12/28 14:24:13;;;;;;;;;;;11.20;99.90;;;;;;5014812;28;20039;-79
2021/12/28 14:26:40;;;;;;;;;;;11.80;99.90;;;;;;5032244;28;19913;-76
2021/12/28 14:29:06;;;;;;;;;;;11.80;99.90;;;;;;5031553;28;20007;-75
2021/12/28 14:31:34;;;;;;;;;;;10.10;99.90;;;;;;5032119;28;20009;-75
2021/12/28 14:34:00;;;;;;;;;;;12.70;99.90;;;;;;5038983;28;19905;-76
2021/12/28 14:36:33;;;;;;;;;;;11.00;99.90;;;;;;5031714;28;19911;-76
2021/12/28 14:39:10;;;;;;;;;;;11.60;99.90;;;;;;5031046;28;19917;-76